Главная страница
METAR-TAF:

METAR-TAF

Аэропорты :

Нанди, Фиджи

Нади

широта: 17-45S, долгота: 177-27E, высота над уровнем моря: 13 м

Текущие метеонаблюдения

Эта сводка был подготовлена 43 минут назад, в 02:00 UTC
Ветер 9 Узел от западный-юго-западный
Температура 29°C
Влажность 74%
Давление 1010 hPa
Видимость 10 км и более
небольшая облачность на высоте 2800 фута

METAR: NFFN 220200Z 25009KT 9999 FEW028 29/24 Q1010 NOSIG

Время: 14:43 (02:43 UTC)

Прогноз

Эта сводка был подготовлена 3 часа и 24 минут назад, в 23:19 UTC
Прогноз действительный с 22-го 00 UTC до 22-го 24 UTC
Ветер 10 Узел от западный-юго-западный
Видимость 10 км и более
Отдельные облака на высоте 2500 фута
изменения
С 22-го 04 UTC до 22-го 06 UTC
Ветер 6 Узел от восточный
Вероятность 30% :
временами
С 22-го 02 UTC до 22-го 06 UTC
Видимость: 3000 м
небольшая облачность на высоте 1800 фута, Кучево-дождевые.
гроза, дождь

TAF: NFFN 212319Z 2200/2224 25010KT 9999 SCT025 BECMG 2204/2206 09006KT PROB30 TEMPO 2202/2206 3000 TSRA FEW018CB

Метеонаблюдения и прогнозы для более 4000 аэропортов (сводки METAR и TAF).

Имеющиеся станции представлены на карте желтыми и красными точками.

Чтобы увидеть название станции, наведите на нее мышь.

Затем щелкните, чтобы увидеть метеонаблюдения и метеопрогнозы.

Управление картой: чтобы увеличить масштаб, щелкните зеленые кнопки с черным крестиком; чтобы уменьшить масштаб, щелкните зеленую кнопку с тире; для просмотра соседних карт щелкайте зеленые стрелки.


METAR-TAF: